Time;durP1;ratioP1;P1;durP2;ratioP2;P2;SDS_P1;SDS_P2;PMS_P1;PMS_P2;Temp;Humidity;BMP_temperature;BMP_pressure;BME280_temperature;BME280_humidity;BME280_pressure;Samples;Min_cycle;Max_cycle;Signal;HPM_P1;HPM_P2
2023/01/11 00:01:57;;;;;;;4.95;4.30;;;;;;;;;;4925442;29;20133;-92
2023/01/11 00:04:28;;;;;;;4.97;4.47;;;;;;;;;;4909542;29;20051;-93
2023/01/11 00:06:55;;;;;;;6.28;4.28;;;;;;;;;;4925487;29;20062;-93
2023/01/11 00:09:21;;;;;;;4.75;4.35;;;;;;;;;;4925356;29;20057;-93
2023/01/11 00:11:47;;;;;;;5.03;4.43;;;;;;;;;;4925037;29;20269;-94
2023/01/11 00:14:16;;;;;;;7.75;4.18;;;;;;;;;;4925246;29;20134;-93
2023/01/11 00:16:42;;;;;;;5.03;4.10;;;;;;;;;;4925487;29;20051;-94
2023/01/11 00:19:08;;;;;;;5.07;4.57;;;;;;;;;;4925757;29;20455;-94
2023/01/11 00:21:34;;;;;;;5.43;4.53;;;;;;;;;;4925138;29;20051;-93
2023/01/11 00:24:00;;;;;;;4.35;4.00;;;;;;;;;;4940655;29;20138;-93
2023/01/11 00:26:27;;;;;;;4.43;4.00;;;;;;;;;;4925272;29;20098;-93
2023/01/11 00:28:53;;;;;;;4.45;4.05;;;;;;;;;;4909341;29;20087;-93
2023/01/11 00:31:19;;;;;;;6.22;4.00;;;;;;;;;;4924770;29;20048;-92
2023/01/11 00:33:48;;;;;;;5.07;4.45;;;;;;;;;;4899761;24;20413;-93
2023/01/11 00:40:37;;;;;;;4.78;4.05;;;;;;;;;;4957645;29;20416;-92
2023/01/11 00:48:42;;;;;;;6.13;4.32;;;;;;;;;;4940300;29;20051;-92
2023/01/11 00:51:11;;;;;;;5.03;3.33;;;;;;;;;;4959885;29;20043;-92
2023/01/11 00:53:38;;;;;;;4.82;4.40;;;;;;;;;;4957310;29;20559;-93
2023/01/11 00:56:04;;;;;;;4.15;3.75;;;;;;;;;;4940550;29;20071;-93
2023/01/11 00:58:30;;;;;;;4.55;4.15;;;;;;;;;;4924480;29;20397;-93
2023/01/11 01:01:07;;;;;;;3.63;3.33;;;;;;;;;;4941156;29;20050;-92
2023/01/11 01:03:33;;;;;;;6.60;3.92;;;;;;;;;;4940855;29;20043;-92
2023/01/11 01:06:00;;;;;;;3.63;3.30;;;;;;;;;;4924650;29;20086;-92
2023/01/11 01:08:27;;;;;;;3.47;3.17;;;;;;;;;;4923851;29;20079;-92
2023/01/11 01:10:53;;;;;;;3.72;3.00;;;;;;;;;;4940027;29;20062;-91
2023/01/11 01:16:04;;;;;;;3.03;2.72;;;;;;;;;;4940428;29;20480;-92
2023/01/11 01:18:30;;;;;;;3.15;2.85;;;;;;;;;;4924292;29;20058;-92
2023/01/11 01:20:56;;;;;;;2.80;2.60;;;;;;;;;;4923976;29;20138;-90
2023/01/11 01:23:22;;;;;;;3.30;3.00;;;;;;;;;;4945287;29;20043;-91
2023/01/11 01:25:48;;;;;;;2.83;2.60;;;;;;;;;;4948267;29;20500;-91
2023/01/11 01:28:14;;;;;;;4.82;3.08;;;;;;;;;;4934511;29;20039;-92
2023/01/11 01:30:41;;;;;;;3.05;2.78;;;;;;;;;;4923629;29;20051;-92
2023/01/11 01:33:07;;;;;;;2.90;2.60;;;;;;;;;;4938948;28;20066;-93
2023/01/11 01:35:33;;;;;;;2.63;2.42;;;;;;;;;;4959071;28;20138;-92
2023/01/11 01:37:59;;;;;;;3.05;2.75;;;;;;;;;;4942438;28;20074;-93
2023/01/11 01:40:25;;;;;;;3.38;2.53;;;;;;;;;;4942589;28;20053;-93
2023/01/11 01:42:54;;;;;;;1.75;1.63;;;;;;;;;;4926884;28;20102;-93
2023/01/11 01:45:27;;;;;;;2.55;2.35;;;;;;;;;;4958287;28;20098;-93
2023/01/11 01:48:01;;;;;;;2.17;1.98;;;;;;;;;;4942858;28;20052;-94
2023/01/11 01:50:36;;;;;;;4.03;3.10;;;;;;;;;;4942365;28;20058;-93
2023/01/11 01:53:05;;;;;;;3.13;2.80;;;;;;;;;;4942417;28;20496;-93
2023/01/11 01:55:34;;;;;;;2.47;2.28;;;;;;;;;;4942084;28;20499;-93
2023/01/11 01:58:02;;;;;;;2.38;2.17;;;;;;;;;;4942013;28;20054;-91
2023/01/11 02:00:32;;;;;;;2.70;2.25;;;;;;;;;;4958713;28;20075;-92
2023/01/11 02:03:00;;;;;;;2.17;1.98;;;;;;;;;;4926351;28;20039;-92
2023/01/11 02:05:35;;;;;;;2.60;2.40;;;;;;;;;;4929300;28;20077;-92
2023/01/11 02:08:04;;;;;;;2.60;2.40;;;;;;;;;;4957668;28;20043;-92
2023/01/11 02:10:33;;;;;;;2.05;1.90;;;;;;;;;;4974281;28;20066;-91
2023/01/11 02:13:00;;;;;;;2.08;1.95;;;;;;;;;;4941768;28;20050;-93
2023/01/11 02:15:27;;;;;;;1.45;1.35;;;;;;;;;;4941687;28;20518;-92
2023/01/11 02:17:54;;;;;;;2.03;1.83;;;;;;;;;;4948682;28;20042;-92
2023/01/11 02:20:30;;;;;;;4.10;2.33;;;;;;;;;;4948514;28;20117;-94
2023/01/11 02:23:39;;;;;;;2.67;2.42;;;10.20;99.90;;;;;;4965035;28;20399;-91
2023/01/11 02:26:06;;;;;;;2.17;1.98;;;;;;;;;;4968715;28;20082;-92
2023/01/11 02:29:09;;;;;;;1.83;1.73;;;10.40;99.90;;;;;;4967319;28;20054;-91
2023/01/11 02:31:48;;;;;;;2.20;2.08;;;;;;;;;;4950531;28;20047;-94
2023/01/11 02:34:20;;;;;;;2.45;2.25;;;;;;;;;;4964081;28;20049;-91
2023/01/11 02:36:52;;;;;;;2.88;2.17;;;;;;;;;;4963249;28;20610;-91
2023/01/11 02:39:29;;;;;;;2.10;2.00;;;;;;;;;;4951523;28;20189;-94
2023/01/11 02:45:06;;;;;;;1.83;1.73;;;;;;;;;;4964062;28;20054;-91
2023/01/11 02:47:44;;;;;;;2.15;1.88;;;;;;;;;;4928390;28;20043;-90
2023/01/11 02:50:11;;;;;;;1.55;1.45;;;;;;;;;;4948385;28;20047;-93
2023/01/11 02:52:46;;;;;;;1.45;1.35;;;;;;;;;;4948194;28;20067;-91
2023/01/11 02:55:13;;;;;;;2.78;2.53;;;;;;;;;;4963940;28;20101;-92
2023/01/11 02:57:41;;;;;;;2.00;1.85;;;;;;;;;;4948797;28;20559;-91
2023/01/11 03:00:08;;;;;;;3.83;2.10;;;;;;;;;;4957012;28;20094;-92
2023/01/11 03:02:34;;;;;;;2.00;1.80;;;;;;;;;;4941370;28;20068;-91
2023/01/11 03:05:00;;;;;;;1.50;1.40;;;;;;;;;;4941845;28;20384;-91
2023/01/11 03:07:35;;;;;;;2.25;2.13;;;;;;;;;;4941263;28;20411;-90
2023/01/11 03:10:01;;;;;;;1.42;1.33;;;;;;;;;;4956830;28;20043;-91
2023/01/11 03:12:53;;;;;;;1.63;1.17;;;;;;;;;;4941011;28;20047;-91
2023/01/11 03:15:38;;;;;;;1.23;1.20;;;;;;;;;;4957003;28;20091;-91
2023/01/11 03:18:19;;;;;;;1.85;1.75;;;;;;;;;;4957539;28;20476;-93
2023/01/11 03:20:48;;;;;;;1.85;1.52;;;;;;;;;;4942171;28;20130;-94
2023/01/11 03:23:24;;;;;;;5.95;1.80;;;;;;;;;;4941248;28;20129;-91
2023/01/11 03:26:08;;;;;;;4.05;2.28;;;;;;;;;;4941548;28;20051;-95
2023/01/11 03:28:34;;;;;;;4.82;2.50;;;;;;;;;;4941263;28;20046;-92
2023/01/11 03:31:05;;;;;;;6.28;2.83;;;;;;;;;;4975151;28;20058;-91
2023/01/11 03:33:43;;;;;;;10.13;3.90;;;;;;;;;;4944494;28;20050;-92
2023/01/11 03:36:23;;;;;;;7.50;3.50;;;;;;;;;;4960373;28;20126;-92
2023/01/11 03:38:54;;;;;;;13.63;2.97;;;;;;;;;;4944718;28;20141;-92
2023/01/11 03:41:22;;;;;;;7.57;3.08;;;;;;;;;;4944532;28;20043;-94
2023/01/11 03:43:49;;;;;;;12.95;4.25;;;;;;;;;;4960712;28;20046;-95
2023/01/11 03:46:18;;;;;;;5.03;3.10;;;;;;;;;;4944608;28;20043;-96
2023/01/11 03:48:44;;;;;;;8.80;4.10;;;;;;;;;;4944691;28;20038;-95
2023/01/11 03:51:12;;;;;;;13.10;4.00;;;;;;;;;;4944305;28;20566;-92
2023/01/11 03:53:40;;;;;;;5.10;3.78;;;;;;;;;;4944199;28;20050;-93
2023/01/11 03:56:09;;;;;;;9.27;4.10;;;;;;;;;;4960495;28;20043;-93
2023/01/11 03:58:35;;;;;;;11.23;4.30;;;;;;;;;;4943910;28;20043;-92
2023/01/11 04:01:02;;;;;;;10.43;5.03;;;;;;;;;;4943966;28;20125;-92
2023/01/11 04:03:28;;;;;;;9.25;4.82;;;;;;;;;;4960061;28;20038;-90
2023/01/11 04:05:56;;;;;;;16.55;4.65;;;;;;;;;;4927971;28;20054;-91
2023/01/11 04:08:23;;;;;;;9.00;4.28;;;;;;;;;;4943549;28;20126;-93
2023/01/11 04:10:49;;;;;;;7.20;3.20;;;;;;;;;;4943435;28;20078;-90
2023/01/11 04:13:15;;;;;;;19.92;3.25;;;;;;;;;;4943956;28;20043;-91
2023/01/11 04:15:41;;;;;;;12.43;3.17;;;;;;;;;;4959888;28;20555;-90
2023/01/11 04:18:08;;;;;;;10.35;2.80;;;;;;;;;;4973706;28;20046;-90
2023/01/11 04:20:45;;;;;;;9.35;2.75;;;;;;;;;;4963754;28;20078;-90
2023/01/11 04:23:15;;;;;;;14.15;2.80;;;;;;;;;;4979500;28;20035;-89
2023/01/11 04:25:41;;;;;;;13.18;2.10;;;;;;;;;;4946218;28;20086;-89
2023/01/11 04:28:07;;;;;;;3.92;1.63;;;;;;;;;;4967268;28;20043;-93
2023/01/11 04:30:34;;;;;;;6.57;1.75;;;;;;;;;;4937562;28;20047;-95
2023/01/11 04:33:00;;;;;;;11.25;1.80;;;;;;;;;;4954659;28;20042;-93
2023/01/11 04:35:27;;;;;;;4.43;1.73;;;;;;;;;;4950088;28;20054;-93
2023/01/11 04:37:56;;;;;;;5.85;2.33;;;;;;;;;;4949011;28;20098;-96
2023/01/11 04:40:23;;;;;;;8.07;1.70;;;;;;;;;;4945905;28;20051;-96
2023/01/11 04:42:49;;;;;;;3.92;1.80;;;;;;;;;;4960133;28;20071;-95
2023/01/11 04:45:15;;;;;;;8.20;2.42;;;;;;;;;;4927875;28;20083;-93
2023/01/11 04:47:41;;;;;;;9.77;2.85;;;;;;;;;;4959877;28;20039;-91
2023/01/11 04:50:08;;;;;;;9.05;2.53;;;;;;;;;;4959883;28;20051;-92
2023/01/11 04:52:34;;;;;;;11.65;2.80;;;;;;;;;;4960079;28;20046;-94
2023/01/11 04:55:00;;;;;;;10.65;2.65;;;;;;;;;;4960569;28;20058;-96
2023/01/11 04:57:26;;;;;;;7.38;2.42;;;;;;;;;;4944443;28;20050;-95
2023/01/11 04:59:52;;;;;;;10.88;2.47;;;;;;;;;;4943389;28;20054;-90
2023/01/11 05:02:18;;;;;;;6.88;2.15;;;;;;;;;;4942998;28;20078;-88
2023/01/11 05:04:44;;;;;;;10.98;3.03;;;;;;;;;;4927106;28;20047;-89
2023/01/11 05:07:10;;;;;;;12.55;3.45;;;;;;;;;;4943056;28;20063;-89
2023/01/11 05:09:36;;;;;;;12.43;3.30;;;;;;;;;;4942877;28;20042;-91
2023/01/11 05:12:02;;;;;;;8.07;2.47;;;;;;;;;;4958432;28;20047;-88
2023/01/11 05:14:28;;;;;;;12.77;3.97;;;;;;;;;;4926700;28;20039;-89
2023/01/11 05:16:54;;;;;;;14.73;3.78;;;;;;;;;;4942177;28;20053;-89
2023/01/11 05:19:21;;;;;;;10.80;3.67;;;;;;;;;;4942133;28;20522;-88
2023/01/11 05:21:47;;;;;;;11.02;3.08;;;;;;;;;;4926331;28;20041;-89
2023/01/11 05:24:14;;;;;;;8.98;2.63;;;;;;;;;;4942002;28;20047;-88
2023/01/11 05:26:41;;;;;;;23.38;4.15;;;10.30;99.90;;;;;;4941910;28;20411;-90
2023/01/11 05:29:09;;;;;;;16.88;3.40;;;;;;;;;;4941900;28;20047;-88
2023/01/11 05:31:36;;;;;;;14.52;3.63;;;;;;;;;;4958542;28;20125;-88
2023/01/11 05:34:05;;;;;;;18.17;4.22;;;;;;;;;;4926937;28;20146;-90
2023/01/11 05:36:31;;;;;;;17.40;4.15;;;;;;;;;;4952680;29;20070;-90
2023/01/11 05:38:57;;;;;;;14.60;3.50;;;;;;;;;;4938848;29;20051;-90
2023/01/11 05:41:25;;;;;;;31.38;5.05;;;;;;;;;;4922956;29;20067;-90
2023/01/11 05:46:37;;;;;;;23.85;5.65;;;;;;;;;;4938681;29;20564;-92
2023/01/11 05:49:03;;;;;;;23.25;4.10;;;;;;;;;;4938924;29;20047;-89
2023/01/11 05:51:31;;;;;;;13.52;3.58;;;;;;;;;;4938608;29;20082;-90
2023/01/11 05:53:57;;;;;;;27.10;4.63;;;;;;;;;;4938454;29;20062;-89
2023/01/11 05:56:23;;;;;;;12.48;4.03;;;;;;;;;;4923028;29;20039;-89
2023/01/11 05:58:50;;;;;;;14.18;4.07;;;;;;;;;;4922964;29;20114;-90
2023/01/11 06:01:16;;;;;;;18.05;3.33;;;;;;;;;;4938641;29;20043;-89
2023/01/11 06:03:42;;;;;;;14.38;3.42;;;;;;;;;;4922843;29;20055;-89
2023/01/11 06:06:08;;;;;;;17.00;3.22;;;;;;;;;;4938154;29;20078;-88
2023/01/11 06:08:34;;;;;;;16.60;3.67;;;;;;;;;;4923031;29;20044;-94
2023/01/11 06:11:01;;;;;;;14.93;3.72;;;;;;;;;;4938575;29;20054;-88
2023/01/11 06:13:27;;;;;;;16.58;3.70;;;;;;;;;;4938380;29;20138;-91
2023/01/11 06:16:06;;;;;;;12.00;3.97;;;;;;;;;;4938432;29;20471;-89
2023/01/11 06:18:33;;;;;;;17.55;4.55;;;;;;;;;;4937964;29;20054;-90
2023/01/11 06:21:00;;;;;;;14.40;4.03;;;;;;;;;;4938218;29;20046;-89
2023/01/11 06:23:26;;;;;;;19.02;4.07;;;;;;;;;;4938029;29;20047;-89
2023/01/11 06:25:52;;;;;;;20.20;4.82;;;;;;;;;;4938375;29;20070;-92
2023/01/11 06:28:19;;;;;;;14.68;3.60;;;;;;;;;;4922675;29;20134;-93
2023/01/11 06:30:51;;;;;;;17.55;3.65;;;;;;;;;;4938836;29;20103;-92
2023/01/11 06:33:17;;;;;;;14.30;3.75;;;;;;;;;;4938809;29;20047;-88
2023/01/11 06:35:43;;;;;;;20.38;4.90;;;;;;;;;;4939856;29;20591;-88
2023/01/11 06:38:10;;;;;;;21.77;4.03;;;;;;;;;;4956927;28;20055;-90
2023/01/11 06:40:37;;;;;;;19.15;5.35;;;;;;;;;;4958013;28;20090;-92
2023/01/11 06:43:04;;;;;;;15.15;3.70;;;;;;;;;;4942345;28;20046;-88
2023/01/11 06:45:30;;;;;;;19.98;4.28;;;;;;;;;;4941237;28;20047;-89
2023/01/11 06:47:56;;;;;;;10.93;3.10;;;;;;;;;;4957411;28;20042;-91
2023/01/11 06:50:22;;;;;;;21.23;3.45;;;;;;;;;;4941524;28;20113;-94
2023/01/11 06:52:56;;;;;;;18.25;4.72;;;;;;;;;;4925905;28;20055;-90
2023/01/11 06:55:23;;;;;;;13.27;2.92;;;;;;;;;;4957380;28;20447;-88
2023/01/11 06:57:49;;;;;;;8.98;2.83;;;;;;;;;;4941358;28;20514;-91
2023/01/11 07:00:16;;;;;;;13.30;2.58;;;;;;;;;;4957857;28;20047;-94
2023/01/11 07:02:42;;;;;;;10.63;3.05;;;;;;;;;;4958128;28;20058;-91
2023/01/11 07:05:08;;;;;;;8.82;4.22;;;;;;;;;;4941851;28;20057;-93
2023/01/11 07:07:35;;;;;;;9.75;2.80;;;;;;;;;;4945039;28;20047;-94
2023/01/11 07:10:01;;;;;;;11.43;2.50;;;;;;;;;;4945836;28;20448;-92
2023/01/11 07:12:27;;;;;;;12.63;2.75;;;;;;;;;;4945455;28;20500;-92
2023/01/11 07:14:53;;;;;;;12.43;2.58;;;;;;;;;;4929937;28;20039;-93
2023/01/11 07:17:19;;;;;;;18.33;3.55;;;;;;;;;;4930643;28;20053;-90
2023/01/11 07:19:45;;;;;;;8.63;3.10;;;;;;;;;;4946006;28;20495;-90
2023/01/11 07:22:11;;;;;;;9.80;2.38;;;;;;;;;;4930124;28;20514;-92
2023/01/11 07:24:37;;;;;;;12.23;2.67;;;;;;;;;;4929906;28;20194;-93
2023/01/11 07:27:04;;;;;;;12.65;2.83;;;;;;;;;;4929662;28;20054;-94
2023/01/11 07:29:30;;;;;;;10.55;2.55;;;;;;;;;;4961478;28;20042;-92
2023/01/11 07:32:17;;;;;;;14.98;3.78;;;;;;;;;;4945946;28;20098;-91
2023/01/11 07:38:24;;;;;;;16.95;4.03;;;;;;;;;;4978049;28;20061;-92
2023/01/11 07:50:39;;;;;;;16.25;3.72;;;;;;;;;;5066272;23;20102;-94
2023/01/11 07:56:18;;;;;;;6.50;2.47;;;;;;;;;;4965130;23;20131;-92
2023/01/11 07:58:56;;;;;;;8.88;2.25;;;;;;;;;;4917496;23;20051;-92
2023/01/11 08:21:49;;;;;;;;;;;;;;;;;;;;;
2023/01/11 08:33:51;;;;;;;17.73;3.38;;;;;;;;;;4936904;23;20428;-90
2023/01/11 08:36:17;;;;;;;6.72;2.63;;;;;;;;;;5112286;23;20034;-92
2023/01/11 08:42:02;;;;;;;14.02;2.95;;;;;;;;;;4969025;23;20424;-89
2023/01/11 08:44:28;;;;;;;14.20;3.28;;;;;;;;;;4950807;29;20070;-91
2023/01/11 08:46:54;;;;;;;7.88;2.10;;;;;;;;;;4949306;29;20057;-91
2023/01/11 08:49:20;;;;;;;8.18;2.88;;;;;;;;;;4951633;29;20058;-91
2023/01/11 08:59:10;;;;;;;9.43;2.58;;;;;;;;;;4969720;23;20098;-89
2023/01/11 09:08:20;;;;;;;14.32;3.00;;;;;;;;;;4970442;23;20052;-91
2023/01/11 09:30:20;;;;;;;13.68;3.00;;;;;;;;;;4949813;29;20067;-91
2023/01/11 09:36:10;;;;;;;18.23;2.60;;;;;;;;;;4967066;23;20114;-89
2023/01/11 09:38:38;;;;;;;6.25;1.77;;;;;;;;;;4945252;29;20134;-88
2023/01/11 09:41:25;;;;;;;9.88;2.75;;;;;;;;;;5088361;23;20019;-88
2023/01/11 09:52:34;;;;;;;7.78;2.45;;;9.00;99.90;;;;;;4932413;29;20063;-95
2023/01/11 09:55:01;;;;;;;17.02;2.50;;;;;;;;;;4930584;29;20055;-89
2023/01/11 09:57:30;;;;;;;6.43;3.35;;;;;;;;;;4917336;29;20103;-91
2023/01/11 10:00:16;;;;;;;8.50;2.38;;;;;;;;;;4931300;29;20079;-88
2023/01/11 10:07:02;;;;;;;;;;;;;;;;;;;;;
2023/01/11 10:15:31;;;;;;;;;;;;;;;;;;;;;
2023/01/11 10:57:42;;;;;;;13.60;3.47;;;;;;;;;;5024354;23;20115;-89
2023/01/11 11:17:01;;;;;;;14.18;3.00;;;9.70;99.90;;;;;;5158846;23;20027;-90
2023/01/11 11:19:32;;;;;;;13.43;2.85;;;;;;;;;;4939410;29;20044;-88
2023/01/11 11:22:01;;;;;;;12.57;3.50;;;;;;;;;;4955530;29;20049;-88
2023/01/11 11:24:34;;;;;;;8.07;2.88;;;;;;;;;;4970409;29;20066;-88
2023/01/11 11:27:12;;;;;;;25.60;4.15;;;;;;;;;;5076904;23;20026;-89
2023/01/11 11:29:48;;;;;;;16.55;3.28;;;;;;;;;;4955744;29;20043;-89
2023/01/11 11:43:25;;;;;;;11.82;3.70;;;9.80;99.90;;;;;;5439875;23;20049;31
2023/01/11 11:46:02;;;;;;;15.27;3.75;;;;;;;;;;4839670;29;20110;-88
2023/01/11 12:19:13;;;;;;;18.38;4.10;;;;;;;;;;4919698;29;20082;-89
2023/01/11 12:29:27;;;;;;;12.30;3.38;;;;;;;;;;4950520;29;20063;-89
2023/01/11 13:00:32;;;;;;;14.13;3.75;;;;;;;;;;5108919;23;20512;-90
2023/01/11 13:29:23;;;;;;;21.80;4.88;;;;;;;;;;5104139;23;20053;-92
2023/01/11 13:34:40;;;;;;;28.33;4.88;;;;;;;;;;4947316;23;20048;-96
2023/01/11 13:37:36;;;;;;;;;;;;;;;;;;;;;
2023/01/11 13:44:33;;;;;;;34.83;4.53;;;9.60;99.90;;;;;;4993088;23;20058;-90
2023/01/11 13:47:42;;;;;;;16.45;4.53;;;9.60;99.90;;;;;;4963928;28;20061;-91
2023/01/11 13:50:25;;;;;;;16.95;3.75;;;;;;;;;;4949420;28;20046;-91
2023/01/11 14:01:06;;;;;;;15.38;4.45;;;;;;;;;;5115306;23;20047;-91
2023/01/11 14:03:49;;;;;;;24.48;4.50;;;;;;;;;;4945393;28;20131;-92
2023/01/11 14:16:42;;;;;;;16.27;4.05;;;;;;;;;;4944506;29;20054;-92
2023/01/11 14:33:21;;;;;;;13.77;3.63;;;;;;;;;;4963850;26;20492;-89
2023/01/11 14:36:00;;;;;;;21.13;4.35;;;;;;;;;;4947993;28;20061;-90
2023/01/11 14:38:49;;;;;;;22.33;5.40;;;;;;;;;;4918013;29;20060;-91
2023/01/11 14:48:33;;;;;;;17.38;3.70;;;;;;;;;;4922285;29;20069;-91
2023/01/11 14:51:11;;;;;;;15.40;3.95;;;;;;;;;;4887699;29;20048;-89
2023/01/11 14:53:57;;;;;;;18.17;4.10;;;;;;;;;;4911495;29;20056;-92
2023/01/11 14:56:41;;;;;;;20.10;4.68;;;;;;;;;;4908334;29;20060;-90
2023/01/11 14:59:32;;;;;;;;;;;9.10;99.90;;;;;;4890345;29;20056;-95
2023/01/11 15:06:02;;;;;;;18.63;4.60;;;;;;;;;;4920345;29;20146;-90
2023/01/11 15:08:55;;;;;;;15.18;4.07;;;;;;;;;;4886507;29;20048;-90
2023/01/11 15:18:19;;;;;;;14.40;4.85;;;;;;;;;;4926413;28;20042;-90
2023/01/11 15:27:34;;;;;;;15.20;4.40;;;;;;;;;;4959799;28;20143;-90
2023/01/11 15:30:05;;;;;;;18.63;3.63;;;;;;;;;;4986031;23;20050;-90
2023/01/11 15:32:32;;;;;;;34.50;4.90;;;;;;;;;;4930780;29;20055;-94
2023/01/11 15:43:05;;;;;;;15.45;3.88;;;;;;;;;;4964840;28;20081;-92
2023/01/11 15:49:26;;;;;;;17.13;4.75;;;;;;;;;;4985523;28;20082;-90
2023/01/11 15:52:02;;;;;;;11.45;3.35;;;;;;;;;;4946048;28;20061;-91
2023/01/11 15:54:50;;;;;;;24.08;5.65;;;8.40;99.90;;;;;;4963892;28;20093;-92
2023/01/11 16:03:56;;;;;;;18.67;3.45;;;;;;;;;;5306211;23;20089;-90
2023/01/11 16:09:57;;;;;;;12.57;3.42;;;;;;;;;;4982941;28;20130;-91
2023/01/11 16:13:02;;;;;;;10.25;2.63;;;8.30;99.90;;;;;;4949613;28;20059;-89
2023/01/11 16:15:32;;;;;;;12.43;3.85;;;;;;;;;;4966574;28;20086;-89
2023/01/11 16:18:04;;;;;;;17.83;4.75;;;;;;;;;;4947588;28;20086;-91
2023/01/11 16:20:35;;;;;;;12.23;3.38;;;;;;;;;;4973985;28;20047;-90
2023/01/11 16:23:02;;;;;;;16.10;4.07;;;;;;;;;;4927613;23;20146;-91
2023/01/11 16:29:13;;;;;;;8.90;3.58;;;;;;;;;;4940356;29;20093;-91
2023/01/11 16:31:55;;;;;;;21.73;4.50;;;;;;;;;;4922418;29;20052;-90
2023/01/11 16:34:21;;;;;;;13.25;3.35;;;;;;;;;;4938917;29;20043;-93
2023/01/11 16:41:24;;;;;;;15.90;3.90;;;;;;;;;;4941935;29;20580;-92
2023/01/11 16:43:57;;;;;;;9.23;3.65;;;;;;;;;;4914140;29;20070;-93
2023/01/11 16:46:46;;;;;;;15.45;4.07;;;;;;;;;;4946488;29;20489;-90
2023/01/11 16:49:16;;;;;;;14.00;4.50;;;;;;;;;;4974740;28;20044;-91
2023/01/11 17:02:04;;;;;;;20.30;4.85;;;;;;;;;;4914843;29;20109;-91
2023/01/11 17:04:37;;;;;;;22.15;3.92;;;;;;;;;;4972924;28;20051;-90
2023/01/11 17:07:19;;;;;;;11.48;4.15;;;;;;;;;;4956927;29;20078;-91
2023/01/11 17:10:16;;;;;;;11.52;3.80;;;;;;;;;;4978592;28;20079;-90
2023/01/11 17:15:57;;;;;;;16.35;5.70;;;;;;;;;;4911766;29;20135;-89
2023/01/11 17:20:59;;;;;;;13.23;3.75;;;;;;;;;;5180823;23;20531;-89
2023/01/11 17:23:25;;;;;;;26.83;4.63;;;;;;;;;;4927423;29;20055;-92
2023/01/11 17:25:56;;;;;;;29.58;6.75;;;;;;;;;;4923989;29;20051;-91
2023/01/11 17:31:46;;;;;;;23.15;4.63;;;;;;;;;;4957930;29;20046;-90
2023/01/11 17:38:30;;;;;;;20.48;4.30;;;8.20;99.90;;;;;;4956626;29;20046;-90
2023/01/11 17:50:46;;;;;;;21.38;4.10;;;8.00;99.90;;;;;;4966141;28;20090;-88
2023/01/11 17:53:12;;;;;;;20.83;6.15;;;;;;;;;;4961920;29;20074;-88
2023/01/11 17:55:48;;;;;;;23.15;4.22;;;;;;;;;;4943727;29;20470;-88
2023/01/11 17:58:17;;;;;;;19.90;4.82;;;;;;;;;;4959642;29;20051;-88
2023/01/11 18:00:44;;;;;;;11.65;3.33;;;;;;;;;;4959163;29;20051;-88
2023/01/11 18:03:17;;;;;;;12.70;3.55;;;;;;;;;;4928045;29;20047;-87
2023/01/11 18:05:44;;;;;;;10.77;4.65;;;;;;;;;;4961260;29;20460;-88
2023/01/11 18:11:52;;;;;;;21.27;3.83;;;;;;;;;;4965340;29;20038;-87
2023/01/11 18:14:18;;;;;;;13.23;3.00;;;;;;;;;;4945718;29;20046;-88
2023/01/11 18:16:56;;;;;;;16.38;3.63;;;;;;;;;;4962563;29;20047;-87
2023/01/11 18:19:39;;;;;;;21.17;3.72;;;;;;;;;;4944836;28;20062;-88
2023/01/11 18:22:26;;;;;;;11.30;3.85;;;;;;;;;;4961704;29;20051;-88
2023/01/11 18:24:53;;;;;;;22.50;5.15;;;;;;;;;;4960263;29;20141;-88
2023/01/11 18:27:27;;;;;;;22.00;3.85;;;;;;;;;;4945779;29;20039;-87
2023/01/11 18:29:54;;;;;;;;;;;8.30;99.90;;;;;;4959653;29;20500;-88
2023/01/11 18:32:20;;;;;;;16.50;4.85;;;;;;;;;;4926270;29;19922;-88
2023/01/11 18:34:47;;;;;;;7.40;2.90;;;;;;;;;;4958209;29;20047;-87
2023/01/11 18:37:14;;;;;;;19.63;4.03;;;;;;;;;;4941997;29;20485;-87
2023/01/11 18:39:41;;;;;;;11.30;3.65;;;;;;;;;;4930930;29;20047;-88
2023/01/11 18:42:09;;;;;;;15.55;3.63;;;;;;;;;;4922541;29;20079;-88
2023/01/11 18:44:36;;;;;;;20.70;4.10;;;;;;;;;;4937748;29;20062;-89
2023/01/11 18:47:10;;;;;;;18.63;4.47;;;;;;;;;;4937998;29;20047;-88
2023/01/11 18:49:36;;;;;;;20.00;5.65;;;;;;;;;;4937880;29;20106;-89
2023/01/11 18:52:02;;;;;;;20.90;6.32;;;;;;;;;;4938357;29;20039;-88
2023/01/11 18:54:28;;;;;;;21.83;5.30;;;;;;;;;;4937845;29;20051;-91
2023/01/11 18:56:54;;;;;;;18.48;4.05;;;;;;;;;;4938058;29;20046;-88
2023/01/11 18:59:20;;;;;;;13.15;4.30;;;;;;;;;;4937831;29;20107;-88
2023/01/11 19:01:46;;;;;;;21.15;4.97;;;;;;;;;;4939652;29;20043;-89
2023/01/11 19:04:12;;;;;;;17.15;4.25;;;;;;;;;;4925952;29;20082;-90
2023/01/11 19:06:39;;;;;;;19.75;4.63;;;;;;;;;;4941643;29;20104;-88
2023/01/11 19:09:05;;;;;;;23.73;5.38;;;;;;;;;;4941616;29;20113;-91
2023/01/11 19:11:31;;;;;;;16.02;3.03;;;;;;;;;;4941439;29;20058;-89
2023/01/11 19:13:57;;;;;;;19.05;4.57;;;;;;;;;;4957253;29;20039;-88
2023/01/11 19:16:23;;;;;;;17.17;4.18;;;;;;;;;;4926058;29;20053;-88
2023/01/11 19:18:53;;;;;;;13.90;3.70;;;;;;;;;;4941898;29;20055;-89
2023/01/11 19:21:19;;;;;;;17.58;5.20;;;;;;;;;;4941039;29;20567;-89
2023/01/11 19:23:45;;;;;;;10.07;3.58;;;;;;;;;;4909818;29;20055;-89
2023/01/11 19:26:12;;;;;;;16.65;4.68;;;;;;;;;;4925541;29;20078;-88
2023/01/11 19:28:39;;;;;;;14.45;4.43;;;;;;;;;;4957512;29;20058;-89
2023/01/11 19:37:43;;;;;;;21.30;4.38;;;8.30;99.90;;;;;;4977761;28;20061;-88
2023/01/11 19:40:11;;;;;;;17.67;4.15;;;;;;;;;;4960337;28;20090;-90
2023/01/11 19:42:41;;;;;;;13.98;3.85;;;;;;;;;;4975714;28;20415;-90
2023/01/11 19:45:07;;;;;;;28.52;4.20;;;;;;;;;;4943910;28;20054;-89
2023/01/11 19:47:35;;;;;;;16.88;4.13;;;;;;;;;;4965581;28;20059;-90
2023/01/11 19:50:01;;;;;;;15.48;3.85;;;;;;;;;;4949244;28;20399;-92
2023/01/11 19:52:27;;;;;;;17.75;3.97;;;;;;;;;;4963384;28;20043;-89
2023/01/11 19:54:57;;;;;;;19.13;4.72;;;;;;;;;;4965636;28;20066;-91
2023/01/11 19:57:23;;;;;;;17.50;4.78;;;;;;;;;;4966784;28;20043;-91
2023/01/11 19:59:50;;;;;;;11.15;2.83;;;;;;;;;;4968153;28;20057;-89
2023/01/11 20:02:19;;;;;;;9.60;2.35;;;;;;;;;;4983814;28;20047;-88
2023/01/11 20:04:48;;;;;;;16.25;2.58;;;;;;;;;;4967627;28;20050;-88
2023/01/11 20:07:25;;;;;;;6.78;3.30;;;;;;;;;;4984681;28;20487;-88
2023/01/11 20:10:00;;;;;;;12.40;3.45;;;;;;;;;;4969175;28;20062;-88
2023/01/11 20:12:29;;;;;;;15.73;3.35;;;;;;;;;;4967757;28;20058;-88
2023/01/11 20:14:59;;;;;;;11.88;3.17;;;;;;;;;;4951840;28;20051;-88
2023/01/11 20:17:29;;;;;;;11.85;2.63;;;;;;;;;;4969463;28;20500;-88
2023/01/11 20:20:07;;;;;;;7.63;3.95;;;;;;;;;;4943108;29;20062;-88
2023/01/11 20:22:45;;;;;;;12.43;3.28;;;;;;;;;;4951837;29;20050;-88
2023/01/11 20:29:17;;;;;;;10.65;3.65;;;8.10;99.90;;;;;;4967135;29;20070;-88
2023/01/11 20:31:50;;;;;;;18.48;3.65;;;;;;;;;;4965824;28;20483;-88
2023/01/11 20:34:18;;;;;;;8.00;2.67;;;;;;;;;;4948897;29;20086;-88
2023/01/11 20:39:16;;;;;;;19.67;4.00;;;;;;;;;;4996426;23;20089;-89
2023/01/11 20:41:49;;;;;;;13.15;3.30;;;;;;;;;;4985729;28;20043;-89
2023/01/11 20:47:57;;;;;;;14.23;3.05;;;;;;;;;;4987033;28;20077;-90
2023/01/11 20:50:24;;;;;;;13.70;3.45;;;;;;;;;;4947983;28;20055;-93
2023/01/11 20:52:50;;;;;;;11.93;3.20;;;;;;;;;;4946094;28;20104;-95
2023/01/11 20:55:16;;;;;;;16.42;3.58;;;;;;;;;;4945589;28;20074;-90
2023/01/11 20:57:46;;;;;;;11.18;3.92;;;;;;;;;;4961501;28;20055;-93
2023/01/11 21:00:15;;;;;;;6.15;2.20;;;;;;;;;;4962690;28;20074;-91
2023/01/11 21:02:48;;;;;;;13.15;3.15;;;;;;;;;;4965428;28;20043;-88
2023/01/11 21:05:18;;;;;;;17.92;3.78;;;;;;;;;;4948179;28;20046;-90
2023/01/11 21:07:46;;;;;;;14.00;3.63;;;;;;;;;;4947762;28;20170;-89
2023/01/11 21:10:13;;;;;;;15.63;3.35;;;;;;;;;;4964645;23;20090;-90
2023/01/11 21:12:39;;;;;;;15.63;3.45;;;;;;;;;;4940896;29;20047;-90
2023/01/11 21:15:09;;;;;;;11.88;3.28;;;;;;;;;;4942661;29;20103;-88
2023/01/11 21:17:38;;;;;;;17.60;4.10;;;;;;;;;;4960600;29;20043;-88
2023/01/11 21:20:07;;;;;;;15.25;3.60;;;;;;;;;;4930916;29;20056;-88
2023/01/11 21:22:35;;;;;;;12.00;2.97;;;;;;;;;;4912390;29;20114;-89
2023/01/11 21:25:06;;;;;;;9.60;2.90;;;;;;;;;;4944497;29;20099;-88
2023/01/11 21:27:40;;;;;;;11.43;3.22;;;;;;;;;;4930581;29;20075;-90
2023/01/11 21:33:48;;;;;;;15.43;3.33;;;;;;;;;;4943809;29;20046;-88
2023/01/11 21:36:24;;;;;;;16.75;4.05;;;;;;;;;;4942459;29;20056;-88
2023/01/11 21:38:55;;;;;;;17.35;3.97;;;;;;;;;;4926831;29;20051;-89
2023/01/11 21:44:13;;;;;;;9.30;2.53;;;;;;;;;;4926233;29;20393;-88
2023/01/11 21:46:44;;;;;;;18.33;3.88;;;;;;;;;;4942539;29;20055;-88
2023/01/11 21:49:12;;;;;;;5.55;3.25;;;;;;;;;;4929018;29;20075;-90
2023/01/11 21:51:39;;;;;;;15.20;4.00;;;;;;;;;;4933626;29;20093;-91
2023/01/11 21:54:06;;;;;;;8.95;3.15;;;;;;;;;;4937804;29;20071;-89
2023/01/11 21:56:32;;;;;;;20.55;4.15;;;;;;;;;;4936544;29;20137;-89
2023/01/11 22:03:02;;;;;;;17.00;3.78;;;;;;;;;;4987809;28;20128;-89
2023/01/11 22:05:38;;;;;;;21.30;6.10;;;;;;;;;;4933291;28;20504;-88
2023/01/11 22:11:38;;;;;;;15.20;4.32;;;;;;;;;;4985207;28;20089;-89
2023/01/11 22:14:30;;;;;;;12.35;3.88;;;;;;;;;;4980552;28;20069;-88
2023/01/11 22:17:14;;;;;;;8.43;1.63;;;;;;;;;;5048348;23;20054;-90
2023/01/11 22:19:40;;;;;;;10.40;3.38;;;;;;;;;;4946198;29;20047;-91